RA64535 USTR-USRR
Flight info
| Callsign | RA64535 |
|---|---|
| Flight time | N/A |
| Altitude | 35000 |
| Route | N0440F350 SOLMU R717 BOMLI |
| Aircraft | T204/M-VGDW/C |
Departure
| Time | 2026-04-25 06:00 |
|---|---|
| Airport | Roshchino International Airport (USTR) |
Arrival
| Time | N/A |
|---|---|
| Airport | Surgut International Airport (USRR) |
| Time | Latitude | Longitude | Altitude | Speed | Heading |
|---|---|---|---|---|---|
| 2026-04-25 05:41 | 57.18017 | 65.34912 | 384 ft | 0 kts | 42° |
| 2026-04-25 05:52 | 57.18007 | 65.34896 | 387 ft | 2 kts | 42° |
| 2026-04-25 05:52 | 57.17996 | 65.34877 | 387 ft | 2 kts | 42° |
| 2026-04-25 05:53 | 57.17986 | 65.34860 | 387 ft | 0 kts | 42° |
| 2026-04-25 05:53 | 57.17978 | 65.34848 | 387 ft | 2 kts | 28° |
| 2026-04-25 05:53 | 57.17964 | 65.34840 | 387 ft | 2 kts | 3° |
| 2026-04-25 05:53 | 57.17950 | 65.34844 | 387 ft | 2 kts | 339° |
| 2026-04-25 05:54 | 57.17938 | 65.34857 | 387 ft | 0 kts | 317° |
| 2026-04-25 05:54 | 57.17934 | 65.34865 | 387 ft | 0 kts | 314° |
| 2026-04-25 05:56 | 57.17935 | 65.34863 | 387 ft | 1 kts | 314° |
| 2026-04-25 05:56 | 57.17983 | 65.34768 | 387 ft | 14 kts | 298° |
| 2026-04-25 05:56 | 57.17930 | 65.34574 | 387 ft | 21 kts | 224° |
| 2026-04-25 05:56 | 57.17926 | 65.34335 | 387 ft | 24 kts | 315° |
| 2026-04-25 05:57 | 57.18056 | 65.34092 | 387 ft | 28 kts | 308° |
| 2026-04-25 05:57 | 57.18205 | 65.33807 | 387 ft | 33 kts | 313° |
| 2026-04-25 05:57 | 57.18382 | 65.33501 | 387 ft | 37 kts | 314° |
| 2026-04-25 05:57 | 57.18476 | 65.33067 | 387 ft | 39 kts | 266° |
| 2026-04-25 05:58 | 57.18465 | 65.32543 | 387 ft | 43 kts | 269° |
| 2026-04-25 05:58 | 57.18512 | 65.32112 | 387 ft | 27 kts | 318° |
| 2026-04-25 05:58 | 57.18647 | 65.31885 | 387 ft | 24 kts | 317° |
| 2026-04-25 05:58 | 57.18705 | 65.31714 | 387 ft | 10 kts | 228° |
| 2026-04-25 05:59 | 57.18659 | 65.31625 | 387 ft | 10 kts | 228° |
| 2026-04-25 05:59 | 57.18409 | 65.31120 | 387 ft | 103 kts | 226° |
| 2026-04-25 05:59 | 57.17729 | 65.29759 | 437 ft | 176 kts | 223° |
| 2026-04-25 05:59 | 57.16785 | 65.28005 | 741 ft | 221 kts | 225° |
| 2026-04-25 06:00 | 57.15774 | 65.26012 | 1975 ft | 207 kts | 229° |
| 2026-04-25 06:00 | 57.15376 | 65.23541 | 2756 ft | 215 kts | 274° |
| 2026-04-25 06:00 | 57.16079 | 65.21163 | 3615 ft | 222 kts | 315° |
| 2026-04-25 06:00 | 57.17510 | 65.20168 | 4380 ft | 233 kts | 355° |
| 2026-04-25 06:01 | 57.19141 | 65.21036 | 4767 ft | 268 kts | 33° |
| 2026-04-25 06:01 | 57.20338 | 65.23781 | 5402 ft | 286 kts | 71° |
| 2026-04-25 06:01 | 57.20744 | 65.27337 | 6431 ft | 287 kts | 84° |
| 2026-04-25 06:01 | 57.20985 | 65.30979 | 7303 ft | 294 kts | 87° |
| 2026-04-25 06:02 | 57.21175 | 65.34734 | 8160 ft | 301 kts | 88° |
| 2026-04-25 06:02 | 57.21366 | 65.38573 | 9014 ft | 308 kts | 85° |
| 2026-04-25 06:02 | 57.21721 | 65.42522 | 9800 ft | 317 kts | 83° |
| 2026-04-25 06:02 | 57.22082 | 65.46510 | 10629 ft | 322 kts | 84° |
| 2026-04-25 06:03 | 57.22451 | 65.50608 | 11445 ft | 326 kts | 84° |
| 2026-04-25 06:03 | 57.22810 | 65.54704 | 12205 ft | 332 kts | 84° |
| 2026-04-25 06:03 | 57.23170 | 65.58923 | 12977 ft | 336 kts | 84° |
| 2026-04-25 06:03 | 57.23536 | 65.63183 | 13699 ft | 341 kts | 84° |
| 2026-04-25 06:04 | 57.24078 | 65.66928 | 14306 ft | 352 kts | 69° |
| 2026-04-25 06:04 | 57.25377 | 65.70764 | 15044 ft | 358 kts | 50° |
| 2026-04-25 06:04 | 57.27120 | 65.74021 | 15745 ft | 362 kts | 43° |
| 2026-04-25 06:04 | 57.28936 | 65.77188 | 16364 ft | 367 kts | 43° |
| 2026-04-25 06:05 | 57.30822 | 65.80452 | 17011 ft | 372 kts | 43° |
| 2026-04-25 06:05 | 57.32718 | 65.83720 | 17654 ft | 376 kts | 43° |
| 2026-04-25 06:05 | 57.33988 | 65.85909 | 18089 ft | 378 kts | 43° |
| 2026-04-25 06:05 | 57.36568 | 65.90358 | 18853 ft | 385 kts | 43° |
| 2026-04-25 06:06 | 57.38505 | 65.93716 | 19484 ft | 387 kts | 43° |
| 2026-04-25 06:06 | 57.40470 | 65.97131 | 20083 ft | 391 kts | 43° |
| 2026-04-25 06:06 | 57.42458 | 66.00595 | 20600 ft | 396 kts | 43° |
| 2026-04-25 06:06 | 57.44455 | 66.04083 | 21186 ft | 399 kts | 43° |
| 2026-04-25 06:07 | 57.46471 | 66.07597 | 21759 ft | 401 kts | 43° |
| 2026-04-25 06:07 | 57.48490 | 66.11129 | 22311 ft | 404 kts | 43° |
| 2026-04-25 06:07 | 57.50539 | 66.14731 | 22831 ft | 408 kts | 43° |
| 2026-04-25 06:07 | 57.52604 | 66.18355 | 23333 ft | 411 kts | 43° |
| 2026-04-25 06:08 | 57.54672 | 66.21994 | 23827 ft | 415 kts | 43° |
| 2026-04-25 06:08 | 57.56788 | 66.25721 | 24343 ft | 418 kts | 43° |
| 2026-04-25 06:08 | 57.58879 | 66.29411 | 24802 ft | 422 kts | 44° |
| 2026-04-25 06:08 | 57.61003 | 66.33166 | 25304 ft | 424 kts | 43° |
| 2026-04-25 06:09 | 57.63148 | 66.36968 | 25745 ft | 428 kts | 43° |
| 2026-04-25 06:09 | 57.65282 | 66.40749 | 26246 ft | 430 kts | 43° |
| 2026-04-25 06:09 | 57.67458 | 66.44621 | 26802 ft | 430 kts | 43° |
| 2026-04-25 06:09 | 57.69598 | 66.48431 | 27355 ft | 430 kts | 44° |
| 2026-04-25 06:10 | 57.71766 | 66.52294 | 27915 ft | 430 kts | 43° |
| 2026-04-25 06:10 | 57.73179 | 66.54828 | 28292 ft | 430 kts | 44° |
| 2026-04-25 06:10 | 57.76047 | 66.59963 | 29074 ft | 428 kts | 43° |
| 2026-04-25 06:10 | 57.78199 | 66.63821 | 29620 ft | 428 kts | 43° |
| 2026-04-25 06:11 | 57.79620 | 66.66366 | 29981 ft | 428 kts | 44° |
| 2026-04-25 06:11 | 57.82486 | 66.71508 | 30696 ft | 427 kts | 44° |
| 2026-04-25 06:11 | 57.83888 | 66.74026 | 31022 ft | 427 kts | 44° |
| 2026-04-25 06:11 | 57.86543 | 66.78833 | 31422 ft | 432 kts | 44° |
| 2026-04-25 06:12 | 57.88765 | 66.82855 | 31420 ft | 446 kts | 44° |
| 2026-04-25 06:12 | 57.91037 | 66.86990 | 31464 ft | 458 kts | 44° |
| 2026-04-25 06:12 | 57.94913 | 66.94025 | 31534 ft | 475 kts | 44° |
| 2026-04-25 06:13 | 57.98078 | 66.99799 | 31588 ft | 487 kts | 44° |
| 2026-04-25 06:13 | 58.00521 | 67.04265 | 31649 ft | 495 kts | 44° |
| 2026-04-25 06:14 | 58.08067 | 67.18121 | 31943 ft | 513 kts | 44° |
| 2026-04-25 06:14 | 58.10609 | 67.22819 | 32235 ft | 513 kts | 44° |
| 2026-04-25 06:14 | 58.13141 | 67.27484 | 32504 ft | 514 kts | 44° |
| 2026-04-25 06:14 | 58.15726 | 67.32283 | 32820 ft | 513 kts | 44° |
| 2026-04-25 06:15 | 58.18267 | 67.36992 | 33069 ft | 513 kts | 44° |
| 2026-04-25 06:15 | 58.20793 | 67.41692 | 33376 ft | 511 kts | 44° |
| 2026-04-25 06:15 | 58.23319 | 67.46407 | 33609 ft | 511 kts | 44° |
| 2026-04-25 06:15 | 58.25861 | 67.51161 | 33802 ft | 513 kts | 44° |
| 2026-04-25 06:16 | 58.28410 | 67.55937 | 34066 ft | 511 kts | 44° |
| 2026-04-25 06:16 | 58.30909 | 67.60622 | 34262 ft | 512 kts | 44° |
| 2026-04-25 06:16 | 58.32620 | 67.63833 | 34393 ft | 513 kts | 44° |
| 2026-04-25 06:16 | 58.34299 | 67.66991 | 34557 ft | 512 kts | 45° |
| 2026-04-25 06:17 | 58.38542 | 67.74996 | 34722 ft | 513 kts | 45° |
| 2026-04-25 06:17 | 58.42714 | 67.82893 | 34742 ft | 519 kts | 45° |